createdAt,value
2018-12-17T00:01:18.386Z,98601.52
2018-12-17T00:03:52.332Z,98600.74
2018-12-17T00:06:25.305Z,98600.05
2018-12-17T00:08:56.111Z,98590.44
2018-12-17T00:11:27.415Z,98589.29
2018-12-17T00:13:59.461Z,98587.44
2018-12-17T00:16:29.616Z,98590.17
2018-12-17T00:19:00.746Z,98587.86
2018-12-17T00:24:09.370Z,98578.09
2018-12-17T00:26:40.668Z,98570.80
2018-12-17T00:31:55.001Z,98591.09
2018-12-17T00:34:25.349Z,98580.38
2018-12-17T00:36:56.935Z,98587.50
2018-12-17T00:39:28.899Z,98591.30
2018-12-17T00:41:59.110Z,98589.09
2018-12-17T00:44:34.938Z,98599.90
2018-12-17T00:47:06.246Z,98603.52
2018-12-17T00:49:41.416Z,98611.20
2018-12-17T00:52:12.667Z,98628.79
2018-12-17T00:54:44.456Z,98632.51
2018-12-17T00:57:22.553Z,98628.02
2018-12-17T00:59:54.765Z,98632.33
2018-12-17T01:02:25.709Z,98640.56
2018-12-17T01:04:57.413Z,98634.68
2018-12-17T01:07:33.884Z,98641.30
2018-12-17T01:10:06.600Z,98642.79
2018-12-17T01:12:41.454Z,98645.47
2018-12-17T01:15:13.764Z,98648.56
2018-12-17T01:17:46.439Z,98651.86
2018-12-17T01:20:17.691Z,98657.50
2018-12-17T01:22:50.328Z,98656.98
2018-12-17T01:25:21.133Z,98658.64
2018-12-17T01:27:52.276Z,98654.36
2018-12-17T01:30:23.727Z,98653.96
2018-12-17T01:32:56.152Z,98653.48
2018-12-17T01:35:27.587Z,98656.45
2018-12-17T01:40:35.975Z,98646.64
2018-12-17T01:43:08.045Z,98629.74
2018-12-17T01:45:39.342Z,98631.98
2018-12-17T01:48:15.664Z,98623.12
2018-12-17T01:50:47.669Z,98622.17
2018-12-17T01:53:18.977Z,98622.46
2018-12-17T01:55:50.983Z,98613.02
2018-12-17T01:58:29.212Z,98625.23
2018-12-17T02:00:57.093Z,98628.13
2018-12-17T02:03:28.616Z,98630.28
2018-12-17T02:06:00.428Z,98642.90
2018-12-17T02:08:33.488Z,98649.00
2018-12-17T02:11:06.244Z,98635.86
2018-12-17T02:16:21.282Z,98630.50
2018-12-17T02:18:54.064Z,98629.55
2018-12-17T02:21:24.620Z,98619.61
2018-12-17T02:23:56.716Z,98614.10
2018-12-17T02:26:28.538Z,98619.59
2018-12-17T02:28:59.600Z,98618.86
2018-12-17T02:31:30.216Z,98609.53
2018-12-17T02:36:37.267Z,98604.69
2018-12-17T02:39:10.020Z,98609.09
2018-12-17T02:41:43.039Z,98615.30
2018-12-17T02:44:14.193Z,98620.17
2018-12-17T02:46:44.747Z,98614.55
2018-12-17T02:49:17.779Z,98614.87
2018-12-17T02:51:50.379Z,98610.20
2018-12-17T02:56:58.830Z,98615.10
2018-12-17T02:59:29.582Z,98619.50
2018-12-17T03:02:01.149Z,98619.34
2018-12-17T03:04:40.236Z,98620.81
2018-12-17T03:07:11.209Z,98615.88
2018-12-17T03:09:41.377Z,98619.97
2018-12-17T03:12:13.868Z,98622.57
2018-12-17T03:17:21.647Z,98620.84
2018-12-17T03:19:51.861Z,98615.47
2018-12-17T03:22:22.617Z,98610.78
2018-12-17T03:24:53.935Z,98610.23
2018-12-17T03:27:25.975Z,98611.73
2018-12-17T03:29:57.436Z,98610.78
2018-12-17T03:32:29.570Z,98607.13
2018-12-17T03:35:00.257Z,98604.27
2018-12-17T03:37:31.525Z,98606.32
2018-12-17T03:40:04.918Z,98603.44
2018-12-17T03:42:38.032Z,98598.31
2018-12-17T03:45:09.974Z,98596.95
2018-12-17T03:47:41.087Z,98596.43
2018-12-17T03:50:14.775Z,98599.00
2018-12-17T03:52:45.450Z,98608.03
2018-12-17T03:55:15.850Z,98606.02
2018-12-17T03:57:47.475Z,98599.69
2018-12-17T04:00:18.083Z,98609.87
2018-12-17T04:02:50.418Z,98611.27
2018-12-17T04:05:21.916Z,98616.81
2018-12-17T04:07:55.099Z,98614.91
2018-12-17T04:10:25.559Z,98612.61
2018-12-17T04:12:56.967Z,98613.81
2018-12-17T04:15:28.825Z,98602.66
2018-12-17T04:18:00.184Z,98600.54
2018-12-17T04:20:32.851Z,98607.23
2018-12-17T04:23:05.119Z,98616.42
2018-12-17T04:25:35.970Z,98617.55
2018-12-17T04:28:12.309Z,98621.47
2018-12-17T04:30:42.697Z,98623.40
2018-12-17T04:33:13.681Z,98628.19
2018-12-17T04:35:44.039Z,98622.05
2018-12-17T04:38:17.554Z,98616.34
2018-12-17T04:40:48.408Z,98617.20
2018-12-17T04:43:19.933Z,98622.49
2018-12-17T04:45:55.074Z,98620.45
2018-12-17T04:48:26.912Z,98627.98
2018-12-17T04:50:59.051Z,98637.03
2018-12-17T04:53:29.579Z,98661.77
2018-12-17T04:56:01.927Z,98658.43
2018-12-17T04:58:36.324Z,98646.64
2018-12-17T05:01:08.054Z,98651.06
2018-12-17T05:03:40.716Z,98645.09
2018-12-17T05:06:11.967Z,98643.16
2018-12-17T05:08:43.122Z,98640.06
2018-12-17T05:11:16.422Z,98640.66
2018-12-17T05:13:47.173Z,98638.12
2018-12-17T05:16:17.842Z,98637.03
2018-12-17T05:18:49.409Z,98637.40
2018-12-17T05:21:22.456Z,98643.61
2018-12-17T05:26:31.869Z,98655.61
2018-12-17T05:29:04.955Z,98651.91
2018-12-17T05:31:37.111Z,98669.00
2018-12-17T05:34:08.213Z,98658.11
2018-12-17T05:36:39.656Z,98660.41
2018-12-17T05:39:10.900Z,98663.52
2018-12-17T05:41:42.286Z,98669.97
2018-12-17T05:44:13.732Z,98672.83
2018-12-17T05:46:44.495Z,98671.66
2018-12-17T05:49:16.171Z,98672.59
2018-12-17T05:51:46.839Z,98675.22
2018-12-17T05:54:16.961Z,98676.66
2018-12-17T05:56:48.630Z,98680.00
2018-12-17T05:59:20.150Z,98688.13
2018-12-17T06:01:56.297Z,98688.96
2018-12-17T06:04:27.308Z,98690.16
2018-12-17T06:06:59.477Z,98691.47
2018-12-17T06:09:30.903Z,98688.59
2018-12-17T06:12:01.269Z,98694.08
2018-12-17T06:14:31.229Z,98686.17
2018-12-17T06:17:01.264Z,98690.80
2018-12-17T06:19:31.525Z,98694.97
2018-12-17T06:22:01.722Z,98697.33
2018-12-17T06:24:32.188Z,98706.77
2018-12-17T06:27:02.186Z,98694.12
2018-12-17T06:32:08.909Z,98707.68
2018-12-17T06:34:39.549Z,98705.56
2018-12-17T06:37:09.568Z,98707.20
2018-12-17T06:39:40.216Z,98714.84
2018-12-17T06:42:10.752Z,98718.16
2018-12-17T06:44:40.953Z,98726.67
2018-12-17T06:47:11.799Z,98725.81
2018-12-17T06:49:42.205Z,98727.95
2018-12-17T06:52:12.904Z,98731.05
2018-12-17T06:54:43.769Z,98729.47
2018-12-17T06:57:14.030Z,98731.97
2018-12-17T06:59:44.281Z,98730.02
2018-12-17T07:02:15.166Z,98738.86
2018-12-17T07:04:45.520Z,98739.30
2018-12-17T07:07:15.987Z,98724.42
2018-12-17T07:09:46.521Z,98743.93
2018-12-17T07:12:16.969Z,98744.16
2018-12-17T07:14:46.997Z,98755.40
2018-12-17T07:17:18.355Z,98761.59
2018-12-17T07:19:49.648Z,98750.33
2018-12-17T07:22:19.674Z,98760.95
2018-12-17T07:24:50.238Z,98760.66
2018-12-17T07:27:20.776Z,98762.06
2018-12-17T07:29:52.180Z,98773.08
2018-12-17T07:32:22.642Z,98771.00
2018-12-17T07:34:52.987Z,98762.61
2018-12-17T07:37:23.922Z,98771.77
2018-12-17T07:39:54.128Z,98776.49
2018-12-17T07:42:24.468Z,98780.41
2018-12-17T07:44:54.776Z,98770.11
2018-12-17T07:47:25.334Z,98794.30
2018-12-17T07:49:55.479Z,98786.20
2018-12-17T07:52:25.930Z,98789.91
2018-12-17T07:54:56.791Z,98791.11
2018-12-17T07:57:26.924Z,98792.39
2018-12-17T07:59:57.713Z,98806.72
2018-12-17T08:02:28.089Z,98810.67
2018-12-17T08:04:59.165Z,98818.88
2018-12-17T08:07:29.355Z,98808.34
2018-12-17T08:09:59.566Z,98810.79
2018-12-17T08:15:07.569Z,98809.48
2018-12-17T08:17:37.853Z,98815.55
2018-12-17T08:20:08.429Z,98815.71
2018-12-17T08:22:38.663Z,98813.73
2018-12-17T08:25:09.736Z,98825.48
2018-12-17T08:27:39.960Z,98821.88
2018-12-17T08:30:09.978Z,98834.36
2018-12-17T08:32:40.246Z,98834.82
2018-12-17T08:35:10.623Z,98841.44
2018-12-17T08:37:41.149Z,98842.02
2018-12-17T08:40:11.632Z,98855.38
2018-12-17T08:42:42.055Z,98852.59
2018-12-17T08:45:12.239Z,98853.27
2018-12-17T08:47:42.704Z,98854.84
2018-12-17T08:52:50.424Z,98853.34
2018-12-17T08:55:20.838Z,98855.87
2018-12-17T08:57:51.619Z,98854.45
2018-12-17T09:00:21.544Z,98853.66
2018-12-17T09:02:52.381Z,98857.29
2018-12-17T09:05:23.305Z,98853.97
2018-12-17T09:07:53.453Z,98857.16
2018-12-17T09:10:23.732Z,98868.72
2018-12-17T09:12:53.825Z,98867.53
2018-12-17T09:15:24.244Z,98874.24
2018-12-17T09:17:54.516Z,98870.73
2018-12-17T09:20:24.610Z,98868.09
2018-12-17T09:22:54.846Z,98865.44
2018-12-17T09:25:25.710Z,98866.28
2018-12-17T09:27:56.005Z,98866.25
2018-12-17T09:30:26.197Z,98872.87
2018-12-17T09:32:56.356Z,98878.01
2018-12-17T09:35:27.344Z,98868.77
2018-12-17T09:37:57.947Z,98877.72
2018-12-17T09:40:28.379Z,98876.77
2018-12-17T09:42:59.322Z,98872.99
2018-12-17T09:45:29.455Z,98878.00
2018-12-17T09:48:00.335Z,98873.73
2018-12-17T09:50:30.827Z,98870.83
2018-12-17T09:53:00.873Z,98866.35
2018-12-17T09:55:31.674Z,98871.47
2018-12-17T09:58:02.332Z,98870.82
2018-12-17T10:00:32.421Z,98868.17
2018-12-17T10:03:02.645Z,98865.23
2018-12-17T10:05:32.714Z,98858.27
2018-12-17T10:08:02.698Z,98864.57
2018-12-17T10:10:32.865Z,98867.98
2018-12-17T10:13:03.048Z,98865.98
2018-12-17T10:15:33.578Z,98853.83
2018-12-17T10:18:04.990Z,98859.41
2018-12-17T10:20:35.335Z,98862.67
2018-12-17T10:23:05.369Z,98859.42
2018-12-17T10:25:36.021Z,98855.26
2018-12-17T10:28:06.553Z,98852.00
2018-12-17T10:30:36.529Z,98840.90
2018-12-17T10:33:06.638Z,98841.75
2018-12-17T10:35:36.786Z,98835.22
2018-12-17T10:38:07.753Z,98840.77
2018-12-17T10:40:39.717Z,98839.45
2018-12-17T10:43:10.553Z,98840.24
2018-12-17T10:45:43.645Z,98835.69
2018-12-17T10:48:13.672Z,98837.33
2018-12-17T10:50:44.294Z,98842.16
2018-12-17T10:53:14.395Z,98837.22
2018-12-17T10:55:44.675Z,98836.20
2018-12-17T10:58:15.031Z,98838.06
2018-12-17T11:00:50.976Z,98831.55
2018-12-17T11:03:26.566Z,98828.22
2018-12-17T11:05:57.811Z,98832.94
2018-12-17T11:08:27.872Z,98832.88
2018-12-17T11:10:58.226Z,98831.84
2018-12-17T11:13:29.810Z,98823.88
2018-12-17T11:15:59.893Z,98828.75
2018-12-17T11:18:30.131Z,98818.48
2018-12-17T11:21:01.035Z,98817.50
2018-12-17T11:23:32.394Z,98814.72
2018-12-17T11:26:02.507Z,98818.84
2018-12-17T11:28:32.643Z,98817.02
2018-12-17T11:31:02.844Z,98817.73
2018-12-17T11:33:33.120Z,98819.27
2018-12-17T11:36:03.309Z,98819.41
2018-12-17T11:38:33.579Z,98815.30
2018-12-17T11:41:03.713Z,98819.29
2018-12-17T11:43:34.619Z,98822.47
2018-12-17T11:46:09.742Z,98824.61
2018-12-17T11:48:40.723Z,98832.70
2018-12-17T11:51:10.835Z,98838.86
2018-12-17T11:53:40.991Z,98838.59
2018-12-17T11:56:15.042Z,98841.55
2018-12-17T11:58:45.505Z,98843.23
2018-12-17T12:01:17.789Z,98842.22
2018-12-17T12:03:48.659Z,98843.86
2018-12-17T12:06:20.031Z,98850.37
2018-12-17T12:08:50.355Z,98852.43
2018-12-17T12:11:20.746Z,98843.34
2018-12-17T12:13:51.208Z,98849.73
2018-12-17T12:16:21.232Z,98853.31
2018-12-17T12:18:51.893Z,98852.52
2018-12-17T12:21:22.081Z,98845.80
2018-12-17T12:23:52.715Z,98849.59
2018-12-17T12:26:22.951Z,98844.16
2018-12-17T12:28:53.005Z,98844.10
2018-12-17T12:31:23.104Z,98857.78
2018-12-17T12:33:53.454Z,98864.63
2018-12-17T12:36:23.633Z,98873.00
2018-12-17T12:38:53.867Z,98877.23
2018-12-17T12:41:23.883Z,98875.29
2018-12-17T12:43:54.512Z,98868.13
2018-12-17T12:46:24.727Z,98871.14
2018-12-17T12:48:56.102Z,98867.70
2018-12-17T12:51:32.436Z,98874.88
2018-12-17T12:53:57.954Z,98875.84
2018-12-17T12:56:27.914Z,98881.41
2018-12-17T12:58:58.939Z,98878.44
2018-12-17T13:01:29.252Z,98883.57
2018-12-17T13:03:59.437Z,98882.34
2018-12-17T13:06:29.395Z,98897.20
2018-12-17T13:08:59.468Z,98893.36
2018-12-17T13:11:29.470Z,98898.53
2018-12-17T13:13:59.436Z,98887.92
2018-12-17T13:16:29.531Z,98904.34
2018-12-17T13:18:59.452Z,98897.08
2018-12-17T13:21:30.409Z,98895.41
2018-12-17T13:24:00.641Z,98899.75
2018-12-17T13:26:30.711Z,98902.58
2018-12-17T13:29:00.679Z,98910.91
2018-12-17T13:31:30.731Z,98912.06
2018-12-17T13:34:00.993Z,98913.65
2018-12-17T13:36:32.208Z,98916.70
2018-12-17T13:39:02.438Z,98926.63
2018-12-17T13:41:32.769Z,98924.51
2018-12-17T13:44:03.061Z,98935.86
2018-12-17T13:49:09.739Z,98932.17
2018-12-17T13:51:43.879Z,98942.02
2018-12-17T13:54:13.909Z,98933.20
2018-12-17T13:56:43.976Z,98940.61
2018-12-17T13:59:15.126Z,98941.72
2018-12-17T14:01:51.412Z,98947.56
2018-12-17T14:04:18.615Z,98948.72
2018-12-17T14:06:52.864Z,98959.53
2018-12-17T14:09:25.671Z,98964.72
2018-12-17T14:11:55.927Z,98966.67
2018-12-17T14:14:26.093Z,98968.70
2018-12-17T14:17:01.408Z,98974.16
2018-12-17T14:19:33.099Z,98968.88
2018-12-17T14:22:07.908Z,98973.36
2018-12-17T14:24:38.092Z,98979.52
2018-12-17T14:27:08.695Z,98978.38
2018-12-17T14:29:39.705Z,98980.86
2018-12-17T14:32:12.132Z,98981.05
2018-12-17T14:34:43.268Z,98989.91
2018-12-17T14:37:14.315Z,98984.95
2018-12-17T14:39:45.837Z,98993.11
2018-12-17T14:42:22.342Z,99001.63
2018-12-17T14:44:53.601Z,98998.00
2018-12-17T14:47:23.934Z,99001.69
2018-12-17T14:49:54.162Z,99007.97
2018-12-17T14:52:24.634Z,99005.13
2018-12-17T14:54:55.253Z,99012.00
2018-12-17T14:57:26.525Z,99018.44
2018-12-17T14:59:56.539Z,99019.94
2018-12-17T15:05:05.656Z,99017.95
2018-12-17T15:07:36.309Z,99022.30
2018-12-17T15:10:09.222Z,99025.93
2018-12-17T15:12:40.624Z,99026.63
2018-12-17T15:15:13.951Z,99033.95
2018-12-17T15:17:44.862Z,99033.97
2018-12-17T15:20:15.516Z,99031.66
2018-12-17T15:22:46.934Z,99032.81
2018-12-17T15:25:17.509Z,99032.02
2018-12-17T15:27:48.304Z,99051.05
2018-12-17T15:32:56.912Z,99053.73
2018-12-17T15:35:28.440Z,99057.09
2018-12-17T15:38:00.237Z,99062.72
2018-12-17T15:40:30.968Z,99055.89
2018-12-17T15:43:02.830Z,99063.02
2018-12-17T15:45:33.363Z,99067.64
2018-12-17T15:48:06.001Z,99059.83
2018-12-17T15:50:36.883Z,99073.66
2018-12-17T15:53:07.353Z,99076.95
2018-12-17T15:55:39.063Z,99083.16
2018-12-17T15:58:09.613Z,99087.82
2018-12-17T16:00:40.367Z,99089.39
2018-12-17T16:03:10.862Z,99092.70
2018-12-17T16:05:42.354Z,99096.47
2018-12-17T16:08:14.973Z,99098.51
2018-12-17T16:10:46.085Z,99100.80
2018-12-17T16:13:17.471Z,99097.91
2018-12-17T16:15:48.321Z,99104.55
2018-12-17T16:18:18.777Z,99102.40
2018-12-17T16:20:50.253Z,99113.88
2018-12-17T16:23:21.998Z,99113.27
2018-12-17T16:25:52.554Z,99123.31
2018-12-17T16:28:24.202Z,99117.87
2018-12-17T16:30:56.109Z,99122.05
2018-12-17T16:33:30.107Z,99129.41
2018-12-17T16:35:59.810Z,99128.08
2018-12-17T16:38:31.071Z,99130.56
2018-12-17T16:41:01.948Z,99134.25
2018-12-17T16:43:33.154Z,99138.22
2018-12-17T16:46:04.845Z,99134.53
2018-12-17T16:48:38.230Z,99133.52
2018-12-17T16:51:08.825Z,99140.88
2018-12-17T16:53:40.270Z,99140.90
2018-12-17T16:56:11.319Z,99132.19
2018-12-17T16:58:42.003Z,99140.65
2018-12-17T17:01:14.516Z,99141.39
2018-12-17T17:03:45.099Z,99139.58
2018-12-17T17:06:16.126Z,99146.41
2018-12-17T17:08:48.312Z,99145.44
2018-12-17T17:11:20.104Z,99149.07
2018-12-17T17:13:51.777Z,99148.28
2018-12-17T17:16:23.564Z,99153.73
2018-12-17T17:18:54.803Z,99156.03
2018-12-17T17:21:25.369Z,99154.70
2018-12-17T17:23:55.944Z,99156.31
2018-12-17T17:26:26.712Z,99166.13
2018-12-17T17:28:57.409Z,99156.73
2018-12-17T17:31:31.581Z,99166.38
2018-12-17T17:34:02.054Z,99174.64
2018-12-17T17:36:32.834Z,99177.18
2018-12-17T17:39:03.868Z,99175.56
2018-12-17T17:41:35.276Z,99183.05
2018-12-17T17:44:06.223Z,99179.90
2018-12-17T17:46:36.294Z,99184.73
2018-12-17T17:49:07.036Z,99181.53
2018-12-17T17:51:38.815Z,99193.98
2018-12-17T17:54:09.453Z,99188.35
2018-12-17T17:56:40.183Z,99195.79
2018-12-17T17:59:11.110Z,99193.31
2018-12-17T18:01:43.095Z,99199.13
2018-12-17T18:04:14.880Z,99207.38
2018-12-17T18:06:46.179Z,99212.45
2018-12-17T18:09:16.200Z,99206.88
2018-12-17T18:11:46.189Z,99204.81
2018-12-17T18:14:17.729Z,99213.92
2018-12-17T18:16:48.355Z,99217.78
2018-12-17T18:19:18.660Z,99222.75
2018-12-17T18:21:49.243Z,99220.77
2018-12-17T18:24:19.237Z,99224.95
2018-12-17T18:26:50.946Z,99224.66
2018-12-17T18:29:21.564Z,99241.55
2018-12-17T18:31:52.550Z,99240.76
2018-12-17T18:34:23.583Z,99238.84
2018-12-17T18:36:54.119Z,99233.22
2018-12-17T18:39:26.065Z,99231.23
2018-12-17T18:41:58.302Z,99244.24
2018-12-17T18:44:28.302Z,99240.44
2018-12-17T18:46:59.360Z,99243.08
2018-12-17T18:49:30.586Z,99253.06
2018-12-17T18:52:01.804Z,99248.78
2018-12-17T18:54:33.250Z,99258.17
2018-12-17T18:57:04.453Z,99247.88
2018-12-17T18:59:35.698Z,99249.05
2018-12-17T19:02:09.744Z,99234.95
2018-12-17T19:04:44.608Z,99220.25
2018-12-17T19:07:15.238Z,99223.29
2018-12-17T19:09:45.892Z,99218.81
2018-12-17T19:12:17.455Z,99218.81
2018-12-17T19:14:48.841Z,99226.67
2018-12-17T19:17:19.333Z,99229.17
2018-12-17T19:19:52.604Z,99237.63
2018-12-17T19:22:24.116Z,99237.34
2018-12-17T19:24:55.433Z,99241.86
2018-12-17T19:30:03.204Z,99246.72
2018-12-17T19:32:40.131Z,99245.20
2018-12-17T19:35:07.346Z,99257.48
2018-12-17T19:40:15.209Z,99267.64
2018-12-17T19:42:46.119Z,99276.06
2018-12-17T19:45:17.648Z,99273.21
2018-12-17T19:47:48.418Z,99280.05
2018-12-17T19:50:19.521Z,99282.70
2018-12-17T19:52:50.818Z,99284.27
2018-12-17T19:55:21.714Z,99279.73
2018-12-17T19:57:53.681Z,99286.63
2018-12-17T20:00:25.419Z,99285.77
2018-12-17T20:03:00.235Z,99285.11
2018-12-17T20:05:32.093Z,99284.92
2018-12-17T20:08:02.976Z,99287.97
2018-12-17T20:10:39.722Z,99290.44
2018-12-17T20:13:12.017Z,99297.45
2018-12-17T20:18:20.505Z,99290.14
2018-12-17T20:20:50.679Z,99286.98
2018-12-17T20:23:21.172Z,99291.23
2018-12-17T20:25:51.211Z,99293.77
2018-12-17T20:28:25.397Z,99294.09
2018-12-17T20:30:57.831Z,99300.45
2018-12-17T20:36:06.736Z,99309.52
2018-12-17T20:38:38.386Z,99321.52
2018-12-17T20:41:09.792Z,99315.70
2018-12-17T20:43:40.810Z,99323.88
2018-12-17T20:46:11.973Z,99335.93
2018-12-17T20:48:42.511Z,99338.05
2018-12-17T20:51:13.305Z,99330.48
2018-12-17T20:53:45.066Z,99331.13
2018-12-17T20:56:17.207Z,99323.58
2018-12-17T20:58:48.787Z,99336.29
2018-12-17T21:03:57.515Z,99326.45
2018-12-17T21:06:30.023Z,99335.28
2018-12-17T21:09:01.363Z,99328.80
2018-12-17T21:11:35.176Z,99328.02
2018-12-17T21:14:06.700Z,99332.20
2018-12-17T21:16:38.656Z,99329.72
2018-12-17T21:19:08.880Z,99320.52
2018-12-17T21:21:40.213Z,99319.23
2018-12-17T21:24:13.019Z,99319.42
2018-12-17T21:26:44.666Z,99312.10
2018-12-17T21:29:15.466Z,99313.43
2018-12-17T21:31:45.712Z,99316.64
2018-12-17T21:34:17.762Z,99320.45
2018-12-17T21:39:26.182Z,99316.52
2018-12-17T21:41:56.995Z,99323.53
2018-12-17T21:44:28.530Z,99316.94
2018-12-17T21:47:00.076Z,99313.83
2018-12-17T21:49:31.848Z,99317.19
2018-12-17T21:52:07.342Z,99323.55
2018-12-17T21:54:38.899Z,99323.91
2018-12-17T21:57:09.691Z,99320.93
2018-12-17T21:59:40.875Z,99326.26
2018-12-17T22:04:49.539Z,99324.80
2018-12-17T22:07:21.610Z,99324.31
2018-12-17T22:09:53.260Z,99325.34
2018-12-17T22:12:25.607Z,99331.59
2018-12-17T22:14:56.393Z,99325.42
2018-12-17T22:17:27.936Z,99326.94
2018-12-17T22:19:59.473Z,99328.14
2018-12-17T22:22:31.397Z,99321.95
2018-12-17T22:25:02.334Z,99314.41
2018-12-17T22:30:09.788Z,99323.73
2018-12-17T22:32:41.965Z,99330.48
2018-12-17T22:35:15.143Z,99326.86
2018-12-17T22:37:46.058Z,99335.30
2018-12-17T22:40:17.208Z,99330.36
2018-12-17T22:42:48.453Z,99335.58
2018-12-17T22:45:19.934Z,99340.13
2018-12-17T22:47:50.820Z,99330.55
2018-12-17T22:50:23.061Z,99331.78
2018-12-17T22:52:53.101Z,99331.05
2018-12-17T22:55:24.429Z,99327.27
2018-12-17T22:58:02.851Z,99328.66
2018-12-17T23:00:35.039Z,99330.06
2018-12-17T23:03:08.267Z,99337.11
2018-12-17T23:05:39.021Z,99335.55
2018-12-17T23:08:11.008Z,99343.44
2018-12-17T23:10:53.064Z,99332.27
2018-12-17T23:16:23.331Z,99327.65
2018-12-17T23:18:52.779Z,99329.91
2018-12-17T23:21:26.845Z,99336.27
2018-12-17T23:23:59.169Z,99327.78
2018-12-17T23:26:30.501Z,99319.52
2018-12-17T23:31:39.124Z,99321.58
2018-12-17T23:34:13.679Z,99332.61
2018-12-17T23:36:43.771Z,99344.16
2018-12-17T23:39:16.866Z,99334.48
2018-12-17T23:41:50.110Z,99332.36
2018-12-17T23:46:58.115Z,99337.09
2018-12-17T23:49:28.112Z,99338.74
2018-12-17T23:51:59.538Z,99339.23
2018-12-17T23:54:30.605Z,99338.42
2018-12-17T23:57:01.405Z,99331.23
2018-12-17T23:59:32.452Z,99334.75
